Time;durP1;ratioP1;P1;durP2;ratioP2;P2;SDS_P1;SDS_P2;PMS_P1;PMS_P2;Temp;Humidity;BMP_temperature;BMP_pressure;BME280_temperature;BME280_humidity;BME280_pressure;Samples;Min_cycle;Max_cycle;Signal;HPM_P1;HPM_P2
2023/10/24 00:00:18;;;;;;;39.53;10.05;;;;;;;20.45;63.53;100736.81;5112372;28;20024;-80
2023/10/24 00:02:43;;;;;;;29.85;9.77;;;;;;;20.38;63.96;100735.88;5124114;28;20081;-80
2023/10/24 00:05:09;;;;;;;25.77;8.77;;;;;;;20.34;64.20;100729.06;5137259;28;20035;-79
2023/10/24 00:07:34;;;;;;;23.85;9.23;;;;;;;20.36;64.29;100729.75;5123488;27;20700;-79
2023/10/24 00:10:01;;;;;;;32.50;9.18;;;;;;;20.29;64.17;100723.31;5111775;28;20028;-80
2023/10/24 00:12:27;;;;;;;32.20;8.77;;;;;;;20.15;64.76;100716.75;5112288;28;20111;-81
2023/10/24 00:14:57;;;;;;;31.35;8.95;;;;;;;20.19;64.31;100726.28;5111702;28;20118;-79
2023/10/24 00:17:24;;;;;;;27.55;8.88;;;;;;;20.18;64.76;100724.59;5111493;28;20023;-81
2023/10/24 00:19:49;;;;;;;27.23;9.00;;;;;;;20.34;63.75;100729.91;5111590;28;20032;-79
2023/10/24 00:22:15;;;;;;;27.83;9.95;;;;;;;20.34;63.46;100726.31;5111537;28;20024;-79
2023/10/24 00:24:40;;;;;;;37.35;10.55;;;;;;;20.34;63.43;100740.84;5092185;28;20407;-80
2023/10/24 00:27:06;;;;;;;27.83;9.63;;;;;;;20.32;63.08;100725.69;5111486;28;20768;-79
2023/10/24 00:29:31;;;;;;;29.70;9.40;;;;;;;20.44;62.88;100746.91;5111560;28;20057;-81
2023/10/24 00:31:57;;;;;;;33.35;9.32;;;;;;;20.42;63.03;100742.66;5111648;28;20110;-81
2023/10/24 00:34:22;;;;;;;21.90;8.68;;;;;;;20.21;63.20;100707.84;5110067;28;20069;-81
2023/10/24 00:36:48;;;;;;;29.00;9.55;;;;;;;20.26;62.91;100729.16;5111303;28;20020;-81
2023/10/24 00:39:13;;;;;;;42.25;10.95;;;;;;;20.26;62.59;100732.72;5110943;28;20035;-81
2023/10/24 00:41:39;;;;;;;30.33;10.70;;;;;;;20.30;62.37;100739.53;5111293;28;20150;-81
2023/10/24 00:44:07;;;;;;;30.35;10.10;;;;;;;20.21;61.86;100726.97;5111082;28;20027;-81
2023/10/24 00:46:33;;;;;;;33.20;9.60;;;;;;;19.97;62.48;100699.84;5111197;28;20423;-81
2023/10/24 00:48:58;;;;;;;34.47;11.05;;;;;;;20.03;62.92;100723.66;5111182;28;20020;-80
2023/10/24 00:51:24;;;;;;;45.67;10.65;;;;;;;19.89;63.33;100724.47;5111178;28;20030;-81
2023/10/24 00:53:50;;;;;;;30.65;10.15;;;;;;;19.84;63.29;100716.00;5111082;28;20050;-80
2023/10/24 00:56:16;;;;;;;34.03;11.07;;;;;;;19.64;63.20;100699.25;5132966;28;20016;-81
2023/10/24 00:58:42;;;;;;;39.35;11.25;;;;;;;19.86;63.45;100730.31;5136180;28;20047;-79
2023/10/24 01:01:12;;;;;;;33.08;11.23;;;;;;;19.92;63.87;100733.16;5112291;28;20035;-80
2023/10/24 01:03:39;;;;;;;38.20;11.13;;;;;;;19.96;63.45;100728.19;5110485;28;20460;-79
2023/10/24 01:06:08;;;;;;;37.40;9.88;;;;;;;19.83;64.16;100719.75;5111231;28;20059;-81
2023/10/24 01:08:34;;;;;;;47.83;11.13;;;;;;;19.73;64.26;100708.22;5111227;28;20035;-80
2023/10/24 01:10:59;;;;;;;48.08;10.52;;;;;;;19.81;64.77;100722.69;5110380;28;20099;-79
2023/10/24 01:13:25;;;;;;;49.05;11.68;;;;;;;19.81;64.52;100730.03;5112730;28;20023;-80
2023/10/24 01:15:50;;;;;;;25.23;10.00;;;;;;;19.89;64.31;100725.34;5110581;28;20053;-80
2023/10/24 01:18:16;;;;;;;34.33;11.10;;;;;;;19.87;64.40;100721.09;5110750;28;20406;-80
2023/10/24 01:20:41;;;;;;;28.13;9.90;;;;;;;19.87;64.42;100730.16;5110316;28;20019;-79
2023/10/24 01:23:08;;;;;;;30.85;8.80;;;;;;;19.80;64.53;100722.84;5110309;28;20031;-80
2023/10/24 01:25:37;;;;;;;37.15;9.85;;;;;;;19.62;64.93;100700.47;5110533;28;20072;-80
2023/10/24 01:28:04;;;;;;;31.38;9.25;;;;;;;19.78;64.55;100717.59;5110486;28;20023;-80
2023/10/24 01:30:30;;;;;;;35.72;9.32;;;;;;;19.81;64.86;100727.28;5110765;28;20106;-79
2023/10/24 01:32:55;;;;;;;44.88;10.38;;;;;;;19.81;64.39;100727.28;5109752;28;20161;-80
2023/10/24 01:35:21;;;;;;;28.00;10.20;;;;;;;19.58;64.17;100694.53;5110891;28;20042;-81
2023/10/24 01:37:46;;;;;;;27.52;9.32;;;;;;;19.82;63.74;100718.03;5110771;28;20050;-79
2023/10/24 01:40:12;;;;;;;36.28;9.48;;;;;;;19.66;63.67;100696.34;5111024;28;20459;-80
2023/10/24 01:42:38;;;;;;;32.55;8.00;;;;;;;19.75;63.70;100712.50;5111364;28;20111;-80
2023/10/24 01:45:05;;;;;;;40.65;10.02;;;;;;;19.72;63.76;100712.84;5110923;28;20367;-79
2023/10/24 01:47:30;;;;;;;31.02;9.90;;;;;;;19.62;63.46;100717.69;5120284;28;20072;-80
2023/10/24 01:49:56;;;;;;;38.15;10.07;;;;;;;19.68;63.64;100718.84;5135944;28;20024;-79
2023/10/24 01:52:21;;;;;;;43.53;11.60;;;;;;;19.57;63.54;100719.28;5106197;28;20119;-80
2023/10/24 01:54:47;;;;;;;35.33;10.50;;;;;;;19.51;63.50;100716.22;5110678;28;20120;-79
2023/10/24 01:57:12;;;;;;;35.03;11.30;;;;;;;19.52;63.16;100696.09;5110474;28;20039;-79
2023/10/24 01:59:38;;;;;;;30.60;11.30;;;;;;;19.58;63.25;100699.13;5090685;28;20035;-80
2023/10/24 02:02:03;;;;;;;31.23;10.98;;;;;;;19.67;63.08;100712.53;5110032;28;20028;-81
2023/10/24 02:04:29;;;;;;;29.73;10.48;;;;;;;19.70;62.90;100719.50;5110074;28;20426;-81
2023/10/24 02:06:54;;;;;;;35.45;10.63;;;;;;;19.65;62.57;100716.47;5109959;28;20042;-81
2023/10/24 02:09:20;;;;;;;32.92;10.52;;;;;;;19.67;62.69;100712.53;5109837;28;20036;-81
2023/10/24 02:11:45;;;;;;;41.03;11.15;;;;;;;19.61;63.06;100715.97;5110234;28;20570;-81
2023/10/24 02:14:11;;;;;;;39.28;12.57;;;;;;;19.62;63.01;100716.84;5110307;28;20082;-81
2023/10/24 02:16:36;;;;;;;41.78;12.10;;;;;;;19.53;62.96;100708.72;5110199;28;20517;-79
2023/10/24 02:19:02;;;;;;;44.30;12.93;;;;;;;19.55;63.43;100712.09;5109969;28;20050;-81
2023/10/24 02:21:27;;;;;;;42.33;12.52;;;;;;;19.51;63.28;100716.22;5111583;28;20027;-79
2023/10/24 02:23:53;;;;;;;58.47;14.48;;;;;;;19.37;63.72;100703.31;5114019;28;20407;-79
2023/10/24 02:26:18;;;;;;;49.20;18.00;;;;;;;19.20;63.75;100674.47;5112585;28;20407;-79
2023/10/24 02:28:44;;;;;;;68.15;22.92;;;;;;;19.50;63.38;100720.00;5113838;28;20030;-79
2023/10/24 02:31:10;;;;;;;66.70;24.75;;;;;;;19.46;63.48;100713.19;5117521;28;20028;-81
2023/10/24 02:33:36;;;;;;;81.22;28.35;;;;;;;19.44;63.54;100725.31;5113701;28;20031;-80
2023/10/24 02:36:20;;;;;;;83.55;28.77;;;;;;;19.34;63.88;100725.50;5113853;28;20028;-80
2023/10/24 02:38:45;;;;;;;126.82;34.25;;;;;;;19.18;64.29;100719.28;5113957;28;20032;-80
2023/10/24 02:41:10;;;;;;;73.80;28.33;;;;;;;19.27;64.54;100740.03;5130350;28;20476;-82
2023/10/24 02:43:36;;;;;;;74.68;26.83;;;;;;;19.26;64.53;100739.19;5130501;28;20051;-80
2023/10/24 02:46:05;;;;;;;78.97;29.70;;;;;;;19.19;64.20;100745.53;5114492;28;20020;-80
2023/10/24 02:48:33;;;;;;;73.70;27.25;;;;;;;19.11;64.52;100740.94;5114185;28;20390;-80
2023/10/24 02:50:59;;;;;;;88.60;26.55;;;;;;;18.94;64.60;100733.88;5114291;28;20034;-79
2023/10/24 02:53:25;;;;;;;73.15;24.65;;;;;;;18.81;65.09;100749.91;5113897;28;20051;-80
2023/10/24 02:55:51;;;;;;;94.60;26.60;;;;;;;18.70;65.58;100736.69;5113623;28;20047;-81
2023/10/24 02:58:17;;;;;;;82.47;26.23;;;;;;;18.58;65.53;100708.09;5113610;28;20063;-80
2023/10/24 03:00:44;;;;;;;77.63;24.50;;;;;;;18.71;66.05;100741.97;5113334;28;20076;-81
2023/10/24 03:03:10;;;;;;;57.92;19.70;;;;;;;18.67;66.32;100748.78;5112490;28;20028;-80
2023/10/24 03:05:36;;;;;;;66.90;28.30;;;;;;;18.66;66.08;100740.75;5112950;28;20054;-81
2023/10/24 03:08:02;;;;;;;60.85;18.65;;;;;;;18.67;66.16;100746.06;5112884;28;20019;-79
2023/10/24 03:10:28;;;;;;;49.95;18.20;;;;;;;18.57;66.43;100748.09;5113338;27;20031;-80
2023/10/24 03:12:54;;;;;;;49.38;17.45;;;;;;;18.51;66.05;100740.63;5112728;28;20023;-80
2023/10/24 03:15:19;;;;;;;45.88;20.17;;;;;;;18.50;66.04;100738.09;5113119;28;20405;-80
2023/10/24 03:17:45;;;;;;;52.78;15.20;;;;;;;18.61;65.64;100751.34;5112686;28;20024;-80
2023/10/24 03:20:10;;;;;;;29.58;11.80;;;;;;;18.64;65.18;100751.00;5112880;28;20102;-81
2023/10/24 03:22:36;;;;;;;43.85;12.27;;;;;;;18.52;64.86;100755.09;5112408;28;20028;-79
2023/10/24 03:25:02;;;;;;;40.72;12.23;;;;;;;18.45;65.17;100750.31;5112558;28;20111;-78
2023/10/24 03:27:28;;;;;;;44.40;13.43;;;;;;;18.49;64.52;100756.31;5112618;28;20034;-80
2023/10/24 03:29:53;;;;;;;45.50;11.20;;;;;;;18.43;64.31;100763.25;5112548;28;20031;-80
2023/10/24 03:32:18;;;;;;;47.55;11.70;;;;;;;18.45;64.16;100755.75;5118194;28;20020;-79
2023/10/24 03:34:44;;;;;;;70.18;13.25;;;;;;;18.45;64.26;100755.75;5130938;28;20034;-80
2023/10/24 03:37:09;;;;;;;56.80;12.70;;;;;;;18.41;64.74;100754.41;5123462;28;20538;-80
2023/10/24 03:39:35;;;;;;;92.90;15.45;;;;;;;18.40;64.89;100751.84;5112769;27;20034;-81
2023/10/24 03:42:00;;;;;;;43.13;12.00;;;;;;;18.39;64.99;100745.56;5114872;28;20027;-80
2023/10/24 03:44:26;;;;;;;43.00;13.05;;;;;;;18.43;64.47;100735.19;5112938;28;20028;-79
2023/10/24 03:46:52;;;;;;;59.88;12.38;;;;;;;18.40;64.54;100741.81;5112457;28;20024;-81
2023/10/24 03:49:17;;;;;;;54.88;13.77;;;;;;;18.36;64.81;100729.56;5114657;28;20117;-80
2023/10/24 03:51:43;;;;;;;80.63;14.82;;;;;;;18.38;64.76;100740.28;5112544;28;20024;-79
2023/10/24 03:54:09;;;;;;;80.65;14.90;;;;;;;18.28;64.92;100740.47;5112228;28;20100;-81
2023/10/24 03:56:35;;;;;;;58.67;13.07;;;;;;;18.14;65.17;100734.84;5112573;28;20457;-80
2023/10/24 03:59:02;;;;;;;170.48;23.30;;;;;;;18.26;65.18;100741.66;5112318;28;20154;-82
2023/10/24 04:01:28;;;;;;;99.63;16.55;;;;;;;18.15;65.20;100723.81;5112195;28;20487;-79
2023/10/24 04:03:53;;;;;;;177.95;23.60;;;;;;;18.16;65.24;100727.38;5112079;28;20120;-81
2023/10/24 04:06:19;;;;;;;71.47;13.23;;;;;;;18.20;65.58;100745.91;5110542;28;20020;-83
2023/10/24 04:08:44;;;;;;;77.97;15.88;;;;;;;18.13;65.72;100738.63;5112735;28;20072;-80
2023/10/24 04:11:14;;;;;;;79.35;14.32;;;;;;;17.95;65.77;100716.97;5111454;28;20023;-80
2023/10/24 04:13:40;;;;;;;118.97;14.20;;;;;;;18.07;66.18;100752.91;5111512;28;20051;-79
2023/10/24 04:16:06;;;;;;;145.15;18.30;;;;;;;17.97;66.32;100723.13;5111208;28;20027;-79
2023/10/24 04:18:31;;;;;;;132.68;18.52;;;;;;;18.10;66.46;100744.41;5112072;28;20093;-80
2023/10/24 04:20:56;;;;;;;149.93;17.75;;;;;;;17.90;66.00;100727.53;5111745;28;20023;-81
2023/10/24 04:23:22;;;;;;;104.68;15.13;;;;;;;18.03;66.39;100760.56;5112335;28;20040;-80
2023/10/24 04:25:48;;;;;;;82.13;16.13;;;;;;;18.11;65.86;100752.38;5128036;28;20072;-81
2023/10/24 04:28:13;;;;;;;91.20;16.00;;;;;;;18.14;65.75;100753.91;5131302;28;20035;-78
2023/10/24 04:30:40;;;;;;;66.55;11.98;;;;;;;18.17;65.57;100746.25;5113868;28;20030;-78
2023/10/24 04:33:06;;;;;;;81.45;12.07;;;;;;;17.94;65.38;100723.47;5111327;28;20028;-79
2023/10/24 04:35:32;;;;;;;86.45;15.70;;;;;;;18.09;65.89;100754.44;5110879;28;20024;-78
2023/10/24 04:37:57;;;;;;;92.85;14.65;;;;;;;18.16;65.63;100747.28;5091820;28;20414;-79
2023/10/24 04:40:23;;;;;;;105.35;16.60;;;;;;;18.15;65.46;100753.75;5111513;28;20023;-79
2023/10/24 04:42:51;;;;;;;88.70;14.50;;;;;;;18.14;65.55;100757.47;5111462;28;20083;-79
2023/10/24 04:45:17;;;;;;;89.60;15.15;;;;;;;18.17;65.63;100769.91;5110539;28;20085;-78
2023/10/24 04:47:42;;;;;;;96.03;14.63;;;;;;;18.14;65.78;100762.94;5111278;28;20032;-78
2023/10/24 04:50:08;;;;;;;113.47;17.50;;;;;;;18.21;65.86;100774.00;5111496;28;20474;-78
2023/10/24 04:52:34;;;;;;;116.65;17.33;;;;;;;18.18;65.75;100777.91;5111413;28;20410;-78
2023/10/24 04:54:59;;;;;;;130.82;20.33;;;;;;;18.17;65.73;100773.47;5111443;28;20397;-81
2023/10/24 04:57:25;;;;;;;60.55;13.23;;;;;;;18.27;65.74;100781.47;5111318;28;20051;-79
2023/10/24 04:59:50;;;;;;;82.40;17.20;;;;;;;18.37;65.19;100784.88;5111022;28;20479;-79
2023/10/24 05:02:16;;;;;;;258.42;79.55;;;;;;;18.37;65.00;100776.72;5111687;28;20031;-81
2023/10/24 05:04:41;;;;;;;95.95;27.02;;;;;;;18.40;65.04;100777.22;5111978;28;20047;-80
2023/10/24 05:07:06;;;;;;;79.57;24.83;;;;;;;18.33;65.02;100778.94;5114777;28;20505;-80
2023/10/24 05:09:32;;;;;;;90.05;29.25;;;;;;;18.43;64.93;100790.50;5111860;28;20028;-82
2023/10/24 05:11:57;;;;;;;122.07;31.30;;;;;;;18.56;64.53;100805.50;5109723;28;20098;-82
2023/10/24 05:14:23;;;;;;;100.70;29.02;;;;;;;18.57;64.45;100809.91;5111271;28;20032;-78
2023/10/24 05:16:48;;;;;;;77.18;26.05;;;;;;;18.65;64.43;100815.38;5113734;28;20033;-78
2023/10/24 05:19:14;;;;;;;68.43;21.25;;;;;;;18.51;64.03;100797.84;5125845;28;20107;-79
2023/10/24 05:21:39;;;;;;;69.43;19.45;;;;;;;18.64;63.71;100800.03;5124212;28;20027;-80
2023/10/24 05:24:05;;;;;;;99.07;24.38;;;;;;;18.74;63.25;100798.84;5110182;28;20106;-80
2023/10/24 05:26:31;;;;;;;71.85;21.65;;;;;;;18.87;62.84;100825.53;5110202;28;20019;-78
2023/10/24 05:28:56;;;;;;;98.05;24.80;;;;;;;18.88;62.84;100811.75;5109632;28;20030;-79
2023/10/24 05:31:22;;;;;;;86.55;28.98;;;;;;;18.95;62.86;100823.66;5110480;28;20054;-78
2023/10/24 05:33:49;;;;;;;82.57;28.23;;;;;;;19.09;62.69;100843.88;5110462;28;20043;-80
2023/10/24 05:36:17;;;;;;;93.95;29.30;;;;;;;19.09;62.66;100846.63;5109879;28;20016;-79
2023/10/24 05:38:43;;;;;;;95.32;28.08;;;;;;;19.13;62.53;100842.53;5110503;28;20118;-79
2023/10/24 05:41:08;;;;;;;68.95;30.30;;;;;;;19.13;62.28;100839.78;5110118;28;20157;-80
2023/10/24 05:43:35;;;;;;;100.40;32.13;;;;;;;19.10;62.53;100837.41;5109836;28;20038;-78
2023/10/24 05:46:01;;;;;;;106.93;31.80;;;;;;;19.18;62.47;100840.09;5110591;28;20028;-79
2023/10/24 05:48:26;;;;;;;86.57;32.80;;;;;;;19.35;61.77;100838.19;5109974;28;20514;-80
2023/10/24 05:50:52;;;;;;;85.07;33.42;;;;;;;19.45;61.32;100836.97;5110437;28;20019;-79
2023/10/24 05:53:17;;;;;;;93.22;32.60;;;;;;;19.50;61.33;100833.72;5091129;28;20050;-79
2023/10/24 05:55:43;;;;;;;101.35;32.63;;;;;;;19.61;61.17;100835.19;5110640;28;20027;-80
2023/10/24 05:58:08;;;;;;;93.07;32.85;;;;;;;19.55;61.10;100826.69;5115267;28;20084;-80
2023/10/24 06:00:34;;;;;;;115.47;35.63;;;;;;;19.60;61.30;100839.78;5114727;28;20402;-79
2023/10/24 06:02:59;;;;;;;116.80;37.85;;;;;;;19.65;61.13;100834.69;5114183;28;20065;-79
2023/10/24 06:05:24;;;;;;;125.40;40.17;;;;;;;19.72;60.75;100843.00;5114252;28;20096;-80
2023/10/24 06:07:51;;;;;;;104.85;34.78;;;;;;;19.83;60.38;100840.72;5114267;28;20038;-79
2023/10/24 06:10:17;;;;;;;89.25;34.03;;;;;;;19.89;60.14;100845.44;5127792;28;20309;-80
2023/10/24 06:12:42;;;;;;;110.70;35.33;;;;;;;19.92;60.04;100849.69;5133664;28;20028;-79
2023/10/24 06:15:08;;;;;;;109.60;37.47;;;;;;;19.92;59.85;100855.16;5116838;28;20495;-80
2023/10/24 06:17:34;;;;;;;96.65;36.42;;;;;;;19.88;59.91;100853.81;5113740;28;20019;-80
2023/10/24 06:19:59;;;;;;;81.25;36.80;;;;;;;19.97;59.70;100864.50;5113983;28;20367;-79
2023/10/24 06:22:28;;;;;;;102.60;37.92;;;;;;;19.95;59.29;100846.63;5117769;28;20049;-80
2023/10/24 06:24:55;;;;;;;99.57;36.10;;;;;;;20.19;58.83;100868.28;5116887;28;20111;-80
2023/10/24 06:27:20;;;;;;;115.68;36.53;;;;;;;20.29;58.78;100868.09;5112487;28;20508;-80
2023/10/24 06:29:46;;;;;;;100.70;35.50;;;;;;;20.41;58.55;100867.50;5113960;27;20028;-78
2023/10/24 06:32:11;;;;;;;89.22;31.70;;;;;;;20.50;58.19;100866.41;5113909;28;20027;-79
2023/10/24 06:34:37;;;;;;;85.35;34.10;;;;;;;20.72;57.88;100863.81;5113679;28;20648;-80
2023/10/24 06:37:03;;;;;;;78.40;29.25;;;;;;;20.81;57.16;100873.66;5113620;28;20427;-79
2023/10/24 06:39:29;;;;;;;65.30;26.75;;;;;;;20.81;56.64;100870.91;5113942;28;20148;-80
2023/10/24 06:41:55;;;;;;;87.55;30.25;;;;;;;20.82;56.85;100880.81;5113775;28;20398;-81
2023/10/24 06:44:21;;;;;;;71.53;27.77;;;;;;;20.84;56.78;100884.22;5113401;28;20023;-79
2023/10/24 06:46:46;;;;;;;78.43;27.13;;;;;;;20.95;56.27;100898.28;5113658;28;20133;-79
2023/10/24 06:49:12;;;;;;;60.13;21.58;;;;;;;20.86;56.23;100904.00;5113014;28;20119;-80
2023/10/24 06:51:37;;;;;;;61.15;23.48;;;;;;;20.89;56.32;100909.09;5112982;27;20030;-79
2023/10/24 06:54:03;;;;;;;67.88;23.58;;;;;;;21.01;56.12;100881.13;5112740;28;20032;-79
2023/10/24 06:56:29;;;;;;;78.43;25.52;;;;;;;21.07;56.40;100874.06;5113229;28;20443;-79
2023/10/24 06:58:54;;;;;;;60.90;24.42;;;;;;;20.98;55.95;100875.19;5113058;28;20024;-79
2023/10/24 07:01:19;;;;;;;58.25;25.17;;;;;;;20.80;56.08;100852.78;5118633;28;20555;-79
2023/10/24 07:03:45;;;;;;;68.90;24.20;;;;;;;20.99;56.61;100872.28;5129848;28;20054;-79
2023/10/24 07:06:10;;;;;;;80.93;25.58;;;;;;;21.11;56.15;100881.75;5123181;28;20111;-80
2023/10/24 07:08:36;;;;;;;73.30;24.90;;;;;;;21.12;56.01;100872.50;5112442;27;20412;-80
2023/10/24 07:11:02;;;;;;;71.25;25.35;;;;;;;21.25;55.96;100882.81;5112930;28;20027;-80
2023/10/24 07:13:29;;;;;;;61.15;22.80;;;;;;;21.26;55.84;100862.59;5111636;28;20412;-78
2023/10/24 07:15:54;;;;;;;76.57;19.42;;;;;;;21.36;55.51;100871.41;5112942;28;20031;-79
2023/10/24 07:18:20;;;;;;;59.95;18.95;;;;;;;21.41;55.30;100868.94;5112592;28;20028;-78
2023/10/24 07:20:45;;;;;;;58.22;18.80;;;;;;;21.49;55.08;100857.03;5112439;28;20513;-79
2023/10/24 07:23:11;;;;;;;55.97;18.90;;;;;;;21.63;54.81;100864.38;5112341;28;20027;-79
2023/10/24 07:25:36;;;;;;;84.72;21.00;;;;;;;21.62;54.71;100866.28;5112284;28;20479;-79
2023/10/24 07:28:03;;;;;;;64.03;19.08;;;;;;;21.66;54.36;100870.34;5112477;28;20092;-79
2023/10/24 07:30:30;;;;;;;44.78;16.83;;;;;;;21.67;54.47;100865.72;5112313;28;20031;-80
2023/10/24 07:32:55;;;;;;;54.45;17.75;;;;;;;21.80;54.26;100870.50;5112371;28;20088;-78
2023/10/24 07:35:22;;;;;;;72.82;18.20;;;;;;;21.85;53.87;100873.50;5112176;28;20016;-80
2023/10/24 07:37:47;;;;;;;65.57;16.17;;;;;;;21.83;53.96;100853.69;5110158;28;20032;-79
2023/10/24 07:40:13;;;;;;;53.08;14.40;;;;;;;22.02;53.62;100875.00;5118807;28;20050;-79
2023/10/24 07:42:38;;;;;;;51.63;14.30;;;;;;;22.11;53.32;100868.38;5113240;28;20420;-80
2023/10/24 07:45:04;;;;;;;49.42;14.15;;;;;;;22.06;53.03;100848.94;5112143;28;20019;-80
2023/10/24 07:47:30;;;;;;;51.25;13.05;;;;;;;22.12;53.07;100831.72;5112300;28;20085;-79
2023/10/24 07:49:55;;;;;;;47.88;12.77;;;;;;;22.33;52.90;100861.88;5112063;28;20495;-78
2023/10/24 07:52:23;;;;;;;45.70;10.90;;;;;;;22.32;52.41;100853.84;5112385;28;20027;-80
2023/10/24 07:54:49;;;;;;;49.05;10.77;;;;;;;22.34;52.56;100835.31;5106829;28;20032;-80
2023/10/24 07:57:15;;;;;;;50.35;13.27;;;;;;;22.35;52.25;100821.44;5128012;28;20435;-79
2023/10/24 07:59:40;;;;;;;43.70;12.57;;;;;;;22.58;51.85;100837.66;5113914;28;20069;-79
2023/10/24 08:02:05;;;;;;;37.10;11.77;;;;;;;22.72;51.92;100844.97;5111864;28;20031;-79
2023/10/24 08:04:32;;;;;;;38.55;12.23;;;;;;;22.84;51.79;100837.06;5112059;28;20080;-78
2023/10/24 08:06:59;;;;;;;64.63;13.18;;;;;;;22.96;51.55;100833.56;5112210;28;20504;-79
2023/10/24 08:09:24;;;;;;;53.80;12.73;;;;;;;23.05;51.44;100828.78;5109789;28;20035;-78
2023/10/24 08:11:50;;;;;;;51.33;11.07;;;;;;;23.17;51.13;100822.53;5111980;28;20039;-79
2023/10/24 08:14:15;;;;;;;50.05;11.32;;;;;;;23.17;51.11;100821.66;5111504;28;20039;-79
2023/10/24 08:16:41;;;;;;;42.55;11.45;;;;;;;23.33;50.66;100830.41;5111786;28;20106;-79
2023/10/24 08:19:06;;;;;;;52.58;13.07;;;;;;;23.53;50.13;100825.06;5111383;28;20411;-80
2023/10/24 08:21:32;;;;;;;46.15;10.65;;;;;;;23.65;49.71;100826.19;5111344;28;20067;-78
2023/10/24 08:23:57;;;;;;;42.55;10.50;;;;;;;23.76;49.36;100816.47;5111546;28;20032;-79
2023/10/24 08:26:24;;;;;;;38.78;10.88;;;;;;;23.94;49.07;100827.78;5111131;27;20050;-80
2023/10/24 08:28:50;;;;;;;50.75;12.25;;;;;;;23.98;48.54;100803.44;5092016;28;20035;-80
2023/10/24 08:31:15;;;;;;;31.25;9.68;;;;;;;24.20;48.15;100824.25;5111606;28;20445;-80
2023/10/24 08:33:41;;;;;;;38.22;9.82;;;;;;;24.33;47.83;100818.78;5111003;28;20063;-80
2023/10/24 08:36:06;;;;;;;49.38;9.98;;;;;;;24.48;47.46;100822.19;5111108;28;20111;-80
2023/10/24 08:38:32;;;;;;;41.85;10.13;;;;;;;24.56;47.05;100819.22;5110976;28;20023;-79
2023/10/24 08:40:57;;;;;;;51.45;10.93;;;;;;;24.66;46.92;100816.91;5111431;28;20481;-79
2023/10/24 08:43:24;;;;;;;45.42;10.20;;;;;;;24.79;46.33;100818.81;5109706;28;20108;-80
2023/10/24 08:45:51;;;;;;;28.75;8.90;;;;;;;24.89;46.28;100798.06;5114564;28;20031;-79
2023/10/24 08:48:17;;;;;;;46.47;9.93;;;;;;;25.07;46.24;100804.81;5125324;28;20573;-83
2023/10/24 08:50:44;;;;;;;41.28;9.43;;;;;;;24.94;45.23;100799.34;5120831;28;20034;-79
2023/10/24 08:53:13;;;;;;;43.60;7.97;;;;;;;25.04;45.16;100799.75;5114074;27;20073;-78
2023/10/24 08:55:46;;;;;;;33.13;7.63;;;;;;;25.05;45.27;100796.78;5112284;28;20038;-79
2023/10/24 08:58:16;;;;;;;32.53;8.77;;;;;;;25.10;44.88;100796.13;5113638;28;20103;-80
2023/10/24 09:00:46;;;;;;;21.95;6.90;;;;;;;25.17;44.71;100792.28;5117017;28;20050;-80
2023/10/24 09:03:12;;;;;;;28.15;7.72;;;;;;;25.33;44.55;100788.22;5114051;28;20024;-79
2023/10/24 09:05:40;;;;;;;34.17;6.47;;;;;;;25.45;44.52;100778.22;5112840;28;20134;-81
2023/10/24 09:08:05;;;;;;;39.63;9.77;;;;;;;25.58;44.23;100786.47;5111457;28;20114;-80
2023/10/24 09:10:31;;;;;;;34.33;8.93;;;;;;;25.65;44.05;100787.31;5110588;28;20106;-79
2023/10/24 09:12:57;;;;;;;34.70;8.10;;;;;;;25.70;44.43;100779.22;5111017;28;20027;-80
2023/10/24 09:15:22;;;;;;;42.47;9.18;;;;;;;25.63;44.72;100783.91;5110445;28;20042;-81
2023/10/24 09:17:48;;;;;;;22.75;7.53;;;;;;;25.63;44.98;100786.66;5112048;28;20054;-80
2023/10/24 09:20:18;;;;;;;57.88;9.05;;;;;;;25.48;45.32;100758.50;5110044;28;20475;-79
2023/10/24 09:22:43;;;;;;;48.10;9.10;;;;;;;25.67;44.86;100776.03;5090994;28;20045;-79
2023/10/24 09:25:09;;;;;;;62.85;9.25;;;;;;;25.60;45.25;100770.56;5112071;28;20099;-81
2023/10/24 09:27:34;;;;;;;32.33;7.68;;;;;;;25.68;44.07;100769.47;5114955;28;20035;-80
2023/10/24 09:30:10;;;;;;;20.05;7.07;;;;;;;25.31;44.50;100754.56;5109827;28;20020;-78
2023/10/24 09:32:39;;;;;;;20.27;6.10;;;;;;;25.37;44.97;100759.19;5109629;28;20100;-79
2023/10/24 09:35:05;;;;;;;34.47;7.53;;;;;;;25.31;45.66;100729.78;5091240;28;20113;-80
2023/10/24 09:37:30;;;;;;;26.13;7.65;;;;;;;25.38;45.47;100742.44;5109925;28;20035;-79
2023/10/24 09:39:58;;;;;;;53.30;8.88;;;;;;;25.45;45.40;100757.03;5126220;28;20026;-81
2023/10/24 09:42:26;;;;;;;21.63;7.15;;;;;;;25.34;45.56;100752.22;5124393;28;20031;-79
2023/10/24 09:44:56;;;;;;;26.80;6.90;;;;;;;25.42;46.34;100748.38;5109837;28;20031;-78
2023/10/24 09:47:26;;;;;;;26.95;7.43;;;;;;;25.50;46.31;100745.41;5109748;28;20031;-79
2023/10/24 09:49:53;;;;;;;61.00;11.43;;;;;;;25.30;44.95;100717.91;5090757;28;20108;-80
2023/10/24 09:52:20;;;;;;;67.93;21.27;;;;;;;25.19;46.34;100742.53;5109917;28;20032;-79
2023/10/24 09:54:48;;;;;;;40.25;7.80;;;;;;;25.18;46.15;100713.31;5109846;28;20062;-79
2023/10/24 09:57:17;;;;;;;37.60;7.70;;;;;;;25.32;45.83;100729.56;5109729;28;20031;-80
2023/10/24 09:59:45;;;;;;;30.35;7.28;;;;;;;25.29;46.23;100731.88;5109876;28;20028;-79
2023/10/24 10:02:12;;;;;;;45.25;8.32;;;;;;;25.27;46.51;100728.53;5108553;28;20047;-79
2023/10/24 10:04:38;;;;;;;26.70;7.00;;;;;;;25.21;46.80;100710.97;5109770;28;20052;-79
2023/10/24 10:07:06;;;;;;;33.80;7.65;;;;;;;25.20;47.06;100727.69;5108451;28;20495;-78
2023/10/24 10:09:33;;;;;;;32.65;8.75;;;;;;;25.12;48.13;100717.78;5112361;28;20546;-79
2023/10/24 10:12:01;;;;;;;68.38;10.82;;;;;;;25.33;47.86;100719.38;5115299;28;20023;-80
2023/10/24 10:14:46;;;;;;;31.45;7.53;;;;;;;25.24;46.81;100729.81;5109829;28;20418;-80
2023/10/24 10:17:15;;;;;;;29.60;7.70;;;;;;;25.33;46.74;100738.66;5110199;28;20031;-81
2023/10/24 10:19:43;;;;;;;22.27;6.57;;;;;;;25.42;45.78;100716.16;5109480;28;20548;-79
2023/10/24 10:22:41;;;;;;;30.75;7.75;;;;;;;25.40;45.60;100718.31;5109422;28;20030;-78
2023/10/24 10:25:22;;;;;;;22.98;6.10;;;;;;;25.43;45.16;100720.63;5110270;28;20421;-79
2023/10/24 10:28:01;;;;;;;34.83;6.93;;;;;;;25.33;44.79;100722.13;5109769;28;20550;-79
2023/10/24 10:30:38;;;;;;;40.17;9.60;;;;;;;25.36;45.02;100716.19;5115583;28;20035;-80
2023/10/24 10:33:18;;;;;;;23.75;7.18;;;;;;;25.43;45.07;100717.00;5123334;28;20398;-79
2023/10/24 10:35:54;;;;;;;34.75;9.02;;;;;;;25.50;44.81;100704.09;5118061;28;20107;-79
2023/10/24 10:38:44;;;;;;;26.20;7.15;;;;;;;25.56;44.87;100705.97;5109269;28;20093;-79
2023/10/24 10:41:22;;;;;;;24.92;7.70;;;;;;;25.59;44.92;100702.78;5046197;28;20065;-78
2023/10/24 10:43:48;;;;;;;29.25;6.90;;;;;;;25.70;44.87;100702.06;5050029;28;20041;-81
2023/10/24 10:46:17;;;;;;;31.65;8.50;;;;;;;25.74;44.61;100703.31;5049898;28;20041;-79
2023/10/24 10:48:43;;;;;;;32.42;7.00;;;;;;;25.75;44.07;100698.63;5050148;28;20521;-80
2023/10/24 10:51:13;;;;;;;22.02;6.45;;;;;;;25.72;44.26;100691.66;5050092;28;20031;-79
2023/10/24 10:53:48;;;;;;;37.63;7.97;;;;;;;25.66;43.91;100681.53;5049979;28;20467;-79
2023/10/24 10:56:23;;;;;;;27.80;7.75;;;;;;;25.41;43.98;100644.81;5049621;28;20516;-79
2023/10/24 10:59:07;;;;;;;19.70;5.70;;;;;;;25.66;43.33;100684.28;5051030;28;20037;-79
2023/10/24 11:01:57;;;;;;;19.15;6.45;;;;;;;25.64;43.77;100686.41;5032868;28;20393;-79
2023/10/24 11:04:22;;;;;;;38.65;7.10;;;;;;;25.52;43.68;100671.66;5049140;28;20049;-80
2023/10/24 11:06:51;;;;;;;55.10;8.10;;;;;;;25.63;43.48;100687.47;5049353;28;20044;-80
2023/10/24 11:09:22;;;;;;;26.20;9.07;;;;;;;25.49;43.29;100658.34;5049381;28;20037;-79